Overview Statistics Trail Chart Weather Telemetry Raw packets
 

This is the latest recevied telemetry packets stored in our database for station/object DB0MMR-12. If no packets are shown the sender has not sent any telemetry packets the latest 10 day(s).

Telemetry packets is used to share measurements like repeteater parameters, battery voltage, radiation readings (or any other measurements).

<< 1 2 3 4 >>
Time Press* Temp.in* Hum* eGAS* Temp.out*
1788565037 956 hPa 27.4 C deg 40 % 595 - 22.9 C deg
1788563207 955.8 hPa 27.3 C deg 39.5 % 614 - 23.1 C deg
1788561377 955.8 hPa 27 C deg 39.5 % 622 - 22.9 C deg
1788559547 955.5 hPa 27 C deg 39 % 622 - 22 C deg
1788557717 955.5 hPa 27 C deg 38.3 % 624 - 22.2 C deg
1788555887 955.3 hPa 27.3 C deg 38.2 % 624 - 22.4 C deg
1788554057 955.3 hPa 27.8 C deg 37 % 659 - 23.2 C deg
1788552227 955.2 hPa 27.6 C deg 36.8 % 670 - 23.6 C deg
1788550397 955.2 hPa 27.6 C deg 36.5 % 695 - 23.8 C deg
1788548566 955 hPa 27.7 C deg 36 % 676 - 23.4 C deg
1788546736 954.8 hPa 28.4 C deg 34.3 % 676 - 23.8 C deg
1788544906 954.3 hPa 29.6 C deg 32.7 % 662 - 24.3 C deg
1788543076 954 hPa 29.7 C deg 33.2 % 664 - 25.2 C deg
1788541246 954 hPa 30.6 C deg 32.5 % 670 - 26.1 C deg
1788539416 954.2 hPa 30.7 C deg 29.4 % 735 - 27.6 C deg
1788537586 954.2 hPa 30.2 C deg 30 % 716 - 28.1 C deg
1788535771 954.5 hPa 30.2 C deg 32.1 % 672 - 28.2 C deg
1788535757 954.5 hPa 30.2 C deg 32.1 % 672 - 28.2 C deg
1788533926 954.8 hPa 30.2 C deg 32.9 % 672 - 28.4 C deg
1788532122 955.1 hPa 30 C deg 33.5 % 653 - 28.2 C deg
1788532096 955.1 hPa 30 C deg 33.5 % 653 - 28.2 C deg
1788530311 955.5 hPa 29.8 C deg 34.6 % 643 - 28 C deg
1788530266 955.5 hPa 29.8 C deg 34.6 % 643 - 28 C deg
1788528436 955.9 hPa 29.6 C deg 36.8 % 613 - 27.8 C deg
1788526605 956.4 hPa 29.3 C deg 36.2 % 629 - 27.2 C deg
*Used Equation Coefficients:
Press: 0, 1, 0
Temp.in: 0, 1, 0
Hum: 0, 1, 0
eGAS: 0, 1, 0
Temp.out: 0, 1, 0

  • The parameter names for the analog channels will be Value1, Value2, Value3 (up to Value5) if station has not sent a PARAM-packet that specifies the parameter names for each analog channel.
  • Each analog value is a decimal number between 000 and 255 (according to APRS specifications). The receiver use the telemetry equation coefficientsto to restore the original sensor values. If no EQNS-packet with equation coefficients is sent we will show the values as is (this corresponds to the equation coefficients a=0, b=1 and c=0).
    The sent equation coefficients is used in the equation: a * value2 + b * value + c.
  • The units for the analog values will not be shown if station has not sent a UNIT-packet specifying what unit's to use.
  • The parameter names for the digital bits will be Bit1, Bit2, Bit3 (up to Bit8) if station has not sent a PARAM-packet that specifies the parameter names for each digital bit.
  • All bit labels will be named "On" if station has not sent a UNIT-packet that specifies the label of each bit.
  • A bit is considered to be On when the bit is 1 if station has not sent a BITS-packet that specifies another "Bit sense" (a BITS-packet specify the state of the bits that match the BIT labels)